Time;durP1;ratioP1;P1;durP2;ratioP2;P2;SDS_P1;SDS_P2;PMS_P1;PMS_P2;Temp;Humidity;BMP_temperature;BMP_pressure;BME280_temperature;BME280_humidity;BME280_pressure;Samples;Min_cycle;Max_cycle;Signal;HPM_P1;HPM_P2
2021/06/24 00:01:34;;;;;;;5.73;3.50;;;;;;;24.77;57.07;101013.23;127300;1096;64173;-84
2021/06/24 00:04:01;;;;;;;5.97;3.50;;;;;;;24.78;57.12;101006.82;127314;1096;64212;-85
2021/06/24 00:06:46;;;;;;;5.33;3.40;;;;;;;24.78;57.36;101006.82;127291;1095;64192;-87
2021/06/24 00:09:14;;;;;;;5.03;3.80;;;;;;;24.81;57.51;101000.30;127168;1096;64147;-84
2021/06/24 00:11:41;;;;;;;5.80;3.70;;;;;;;24.82;57.40;100983.13;127221;1096;64154;-84
2021/06/24 00:14:27;;;;;;;6.67;4.20;;;;;;;24.83;57.14;100972.19;127221;1096;64224;-84
2021/06/24 00:16:56;;;;;;;6.17;4.00;;;;;;;24.86;57.30;100971.08;127238;1095;64163;-85
2021/06/24 00:19:25;;;;;;;6.45;4.00;;;;;;;24.84;57.47;100954.17;127208;1096;64655;-85
2021/06/24 00:21:51;;;;;;;;;;;;;;;24.83;57.30;100950.59;127248;1096;64214;-85
2021/06/24 00:24:34;;;;;;;5.37;3.70;;;;;;;24.80;56.96;100942.77;127305;1095;64154;-83
2021/06/24 00:27:12;;;;;;;5.50;3.80;;;;;;;24.81;57.12;100943.61;127237;1095;63968;-83
2021/06/24 00:29:46;;;;;;;5.57;3.70;;;;;;;24.78;57.33;100950.13;127275;1095;64217;-85
2021/06/24 00:32:15;;;;;;;5.75;3.80;;;;;;;24.78;57.18;100952.82;127212;1095;64197;-85
2021/06/24 00:34:49;;;;;;;4.27;3.63;;;;;;;24.76;57.44;100962.91;127206;1096;64368;-84
2021/06/24 00:37:21;;;;;;;6.27;3.70;;;;;;;24.75;57.13;100962.07;127237;1096;64333;-85
2021/06/24 00:39:59;;;;;;;5.03;3.60;;;;;;;24.76;57.30;100962.91;127238;1096;64145;-84
2021/06/24 00:42:29;;;;;;;6.00;4.10;;;;;;;24.77;57.34;100967.33;127242;1096;64646;-83
2021/06/24 00:44:57;;;;;;;5.93;3.50;;;;;;;24.79;57.84;100975.30;127226;1095;64186;-84
2021/06/24 00:47:35;;;;;;;5.87;3.67;;;;;;;24.82;57.69;100978.60;127224;1096;64150;-85
2021/06/24 00:50:14;;;;;;;4.83;3.67;;;;;;;24.84;57.39;100981.17;127315;1095;64724;-85
2021/06/24 00:52:43;;;;;;;5.70;3.60;;;;;;;24.84;57.46;100967.67;127326;1096;64320;-85
2021/06/24 00:55:13;;;;;;;5.00;3.57;;;;;;;24.84;57.34;100952.31;127245;1096;64268;-85
2021/06/24 00:57:40;;;;;;;5.73;3.90;;;;;;;24.84;57.30;100935.27;127314;1095;65381;-85
2021/06/24 01:00:08;;;;;;;5.20;3.73;;;;;;;24.84;57.17;100924.47;127337;1096;63996;-85
2021/06/24 01:02:40;;;;;;;4.77;3.63;;;;;;;24.82;57.61;100919.20;127317;1096;63071;-83
2021/06/24 01:05:07;;;;;;;6.03;3.60;;;;;;;24.81;57.27;100922.88;127253;1096;64163;-84
2021/06/24 01:07:38;;;;;;;5.20;3.70;;;;;;;24.80;57.37;100931.97;127303;1095;64177;-83
2021/06/24 01:10:35;;;;;;;5.73;3.80;;;;;;;24.78;57.36;100942.02;127339;1096;64115;-85
2021/06/24 01:13:03;;;;;;;5.43;3.50;;;;;;;24.77;57.46;100940.34;127223;1096;64147;-84
2021/06/24 01:15:33;;;;;;;7.20;3.53;;;;;;;24.78;57.50;100944.72;127344;1096;64156;-83
2021/06/24 01:18:02;;;;;;;6.40;3.50;;;;;;;24.79;57.37;100942.90;127314;1095;64067;-84
2021/06/24 01:20:39;;;;;;;5.40;3.90;;;;;;;24.81;57.58;100930.11;127208;1096;64157;-84
2021/06/24 01:23:15;;;;;;;7.33;3.80;;;;;;;24.82;57.34;100916.50;127207;1095;64140;-85
2021/06/24 01:25:47;;;;;;;5.70;3.93;;;;;;;24.84;57.34;100910.97;127312;1096;64250;-85
2021/06/24 01:28:14;;;;;;;5.33;3.30;;;;;;;24.84;57.57;100908.27;127210;1095;64417;-85
2021/06/24 01:31:00;;;;;;;6.03;4.03;;;;;;;24.84;57.25;100902.87;127335;1095;64141;-85
2021/06/24 01:33:39;;;;;;;6.07;3.90;;;;;;;24.84;57.52;100902.87;127199;1095;64118;-85
2021/06/24 01:36:09;;;;;;;6.58;3.30;;;;;;;24.82;57.23;100908.41;127220;1096;64208;-86
2021/06/24 01:39:03;;;;;;;4.90;3.67;;;;;;;24.82;57.47;100907.53;127291;1096;64136;-85
2021/06/24 01:41:45;;;;;;;4.67;3.70;;;;;;;24.79;57.37;100905.10;127355;1095;64173;-85
2021/06/24 01:44:37;;;;;;;7.30;3.63;;;;;;;24.77;57.22;100905.23;127308;1095;64146;-86
2021/06/24 01:47:11;;;;;;;5.83;3.90;;;;;;;24.76;57.38;100911.62;127075;1100;64160;-85
2021/06/24 01:50:02;;;;;;;4.90;3.43;;;;;;;24.75;57.06;100915.30;127113;1098;64171;-85
2021/06/24 01:52:35;;;;;;;6.57;3.37;;;;;;;24.76;57.46;100925.12;127099;1099;64362;-85
2021/06/24 01:55:03;;;;;;;4.83;3.37;;;;;;;24.77;57.72;100924.14;127117;1099;64150;-85
2021/06/24 01:57:40;;;;;;;6.80;3.80;;;;;;;24.79;57.39;100915.90;127105;1100;64220;-85
2021/06/24 02:00:32;;;;;;;5.40;3.73;;;;;;;24.80;57.37;100920.32;127139;1100;63918;-83
2021/06/24 02:03:08;;;;;;;4.80;3.70;;;;;;;24.82;57.41;100918.33;127108;1099;64112;-84
2021/06/24 02:05:37;;;;;;;6.40;3.53;;;;;;;24.82;57.72;100916.50;127149;1100;64153;-85
2021/06/24 02:08:18;;;;;;;5.33;3.53;;;;;;;24.81;57.33;100914.78;126437;1100;64172;-84
2021/06/24 02:10:45;;;;;;;5.27;4.00;;;;;;;24.81;57.66;100920.19;127147;1100;64222;-84
2021/06/24 02:13:26;;;;;;;7.57;3.90;;;;;;;24.80;57.28;100912.22;127099;1099;64312;-85
2021/06/24 02:15:54;;;;;;;5.63;3.50;;;;;;;24.79;57.42;100914.05;127075;1100;64251;-85
2021/06/24 02:18:32;;;;;;;5.23;3.50;;;;;;;24.78;57.67;100922.28;127098;1100;64150;-84
2021/06/24 02:21:04;;;;;;;6.23;3.97;;;;;;;24.76;57.53;100933.22;127119;1099;62174;-84
2021/06/24 02:23:57;;;;;;;5.93;3.87;;;;;;;24.75;57.09;100939.59;127121;1100;64268;-85
2021/06/24 02:26:37;;;;;;;6.03;3.43;;;;;;;24.74;57.35;100945.97;127114;1099;64173;-83
2021/06/24 02:29:06;;;;;;;5.83;3.63;;;;;;;24.74;57.40;100938.75;126513;1100;64192;-82
2021/06/24 02:31:32;;;;;;;5.33;3.30;;;;;;;24.76;57.44;100936.76;127135;1100;64227;-85
2021/06/24 02:34:08;;;;;;;5.60;3.80;;;;;;;24.78;57.58;100933.92;127103;1099;64149;-85
2021/06/24 02:36:35;;;;;;;5.50;3.57;;;;;;;24.79;57.67;100932.95;127057;1099;64176;-85
2021/06/24 02:39:10;;;;;;;5.43;3.57;;;;;;;24.80;57.75;100934.66;127111;1100;64147;-84
2021/06/24 02:41:40;;;;;;;5.43;3.40;;;;;;;24.82;57.67;100937.23;126558;1098;64091;-85
2021/06/24 02:44:07;;;;;;;6.00;3.50;;;;;;;24.82;57.37;100940.80;127118;1099;64150;-85
2021/06/24 02:46:41;;;;;;;5.50;3.40;;;;;;;24.82;57.52;100939.93;127095;1098;64073;-85
2021/06/24 02:49:12;;;;;;;4.43;3.30;;;;;;;24.81;57.31;100940.91;127122;1100;64149;-84
2021/06/24 02:51:43;;;;;;;6.43;3.57;;;;;;;24.80;57.29;100944.63;127103;1100;64243;-84
2021/06/24 02:54:18;;;;;;;;;;;;;;;24.78;57.52;100947.42;127153;1099;64230;-86
2021/06/24 02:56:45;;;;;;;5.13;3.47;;;;;;;24.75;57.48;100953.97;127107;1099;64151;-86
2021/06/24 02:59:13;;;;;;;6.60;3.80;;;;;;;24.75;57.45;100958.49;127109;1098;64282;-84
2021/06/24 03:01:42;;;;;;;;;;;;;;;24.72;57.46;100959.61;126581;1099;63968;-84
2021/06/24 03:04:12;;;;;;;4.50;2.90;;;;;;;24.72;57.52;100966.86;127245;1096;64376;-84
2021/06/24 03:06:45;;;;;;;4.83;3.33;;;;;;;24.74;57.56;100968.45;127206;1096;64287;-85
2021/06/24 03:29:18;;;;;;;4.33;3.53;;;;;;;24.87;57.70;100962.00;128473;1091;62322;31
2021/06/24 03:31:53;;;;;;;4.73;3.20;;;;;;;24.86;57.62;100969.25;126323;1098;64183;-83
2021/06/24 03:34:34;;;;;;;5.97;3.40;;;;;;;24.86;57.49;100966.55;126295;1099;63040;-82
2021/06/24 03:37:06;;;;;;;5.23;3.40;;;;;;;24.86;57.55;100971.08;126345;1099;64176;-83
2021/06/24 03:39:38;;;;;;;4.80;3.30;;;;;;;24.86;57.77;100971.95;126503;1099;64087;-83
2021/06/24 03:42:16;;;;;;;6.33;3.63;;;;;;;24.87;57.58;100979.05;126262;1100;64160;-84
2021/06/24 03:44:56;;;;;;;;;;;;;;;;;;;;;
2021/06/24 03:47:30;;;;;;;7.20;4.50;;;;;;;24.89;57.58;100978.94;126557;1100;64301;-84
2021/06/24 03:49:57;;;;;;;7.43;4.80;;;;;;;24.89;57.67;100979.78;126264;1100;64226;-83
2021/06/24 03:52:35;;;;;;;8.40;4.60;;;;;;;24.90;57.25;100977.92;126257;1099;64238;-83
2021/06/24 03:55:03;;;;;;;8.47;4.87;;;;;;;24.88;57.67;100980.77;126510;1099;64620;-83
2021/06/24 03:57:35;;;;;;;10.93;5.90;;;;;;;24.87;57.43;100983.59;126263;1100;64778;-82
2021/06/24 04:00:13;;;;;;;9.83;5.67;;;;;;;24.86;57.36;100979.17;126212;1098;63968;-83
2021/06/24 04:02:56;;;;;;;9.10;5.07;;;;;;;24.83;57.15;100985.69;126229;1100;64150;-84
2021/06/24 04:05:28;;;;;;;9.67;5.20;;;;;;;24.80;57.47;100977.86;126139;1098;64150;-83
2021/06/24 04:08:05;;;;;;;11.43;5.80;;;;;;;24.79;57.45;100988.80;126306;1100;64151;-84
2021/06/24 04:10:39;;;;;;;7.70;5.50;;;;;;;24.77;57.43;100983.53;126208;1097;64958;-84
2021/06/24 04:13:12;;;;;;;7.60;5.00;;;;;;;24.76;57.45;100977.25;126270;1098;64677;-83
2021/06/24 04:16:02;;;;;;;10.47;5.33;;;;;;;24.78;57.78;100987.92;126245;1098;64240;-84
2021/06/24 04:18:32;;;;;;;9.20;5.37;;;;;;;24.79;57.53;100978.84;125803;1103;64259;-84
2021/06/24 04:20:59;;;;;;;10.90;5.60;;;;;;;24.82;57.73;100985.83;125869;1103;63943;-84
2021/06/24 04:23:26;;;;;;;10.00;5.23;;;;;;;24.85;57.88;100990.95;125840;1103;64802;-85
2021/06/24 04:25:56;;;;;;;9.43;5.17;;;;;;;24.88;57.41;100994.27;125859;1103;64227;-83
2021/06/24 04:28:22;;;;;;;8.93;5.60;;;;;;;24.88;57.48;100994.27;125706;1103;64236;-83
2021/06/24 04:31:00;;;;;;;7.83;5.10;;;;;;;24.89;57.44;100990.59;125844;1103;64169;-83
2021/06/24 04:33:38;;;;;;;10.00;5.70;;;;;;;24.90;57.54;100984.20;125771;1101;63091;-83
2021/06/24 04:36:07;;;;;;;13.30;5.27;;;;;;;24.89;57.30;100993.28;125753;1103;64307;-82
2021/06/24 04:38:46;;;;;;;;;;;;;;;;;;;;;
2021/06/24 04:41:36;;;;;;;11.47;6.00;;;;;;;24.89;57.21;100981.64;125735;1103;64172;-82
2021/06/24 04:44:03;;;;;;;13.00;6.30;;;;;;;24.89;57.83;100981.64;125814;1103;64185;-81
2021/06/24 04:46:56;;;;;;;15.20;6.20;;;;;;;24.88;57.69;100977.22;125835;1103;64137;-82
2021/06/24 04:49:26;;;;;;;13.23;6.50;;;;;;;24.89;57.85;100978.94;125649;1104;64361;-84
2021/06/24 04:51:55;;;;;;;11.80;7.00;;;;;;;24.91;57.83;100988.59;125710;1106;64128;-83
2021/06/24 04:54:29;;;;;;;13.00;7.85;;;;;;;24.93;57.92;100983.94;125496;1106;64191;-83
2021/06/24 04:56:58;;;;;;;16.23;10.17;;;;;;;24.97;58.12;100976.44;125495;1106;64317;-82
2021/06/24 04:59:28;;;;;;;15.87;9.80;;;;;;;24.99;58.18;100987.10;126799;1105;62103;-83
2021/06/24 05:01:55;;;;;;;14.27;8.40;;;;;;;25.00;57.90;100981.56;126296;1106;61704;-83
2021/06/24 05:04:21;;;;;;;16.70;9.63;;;;;;;25.02;58.13;100985.00;125690;1104;64233;-83
2021/06/24 05:06:52;;;;;;;15.77;9.60;;;;;;;25.03;58.16;100977.75;125541;1106;64333;-83
2021/06/24 05:09:24;;;;;;;15.93;10.20;;;;;;;25.04;58.40;100974.91;125651;1106;64178;-81
2021/06/24 05:11:51;;;;;;;16.03;10.00;;;;;;;25.05;58.43;100967.66;126523;1105;62693;-82
2021/06/24 05:14:20;;;;;;;15.93;9.73;;;;;;;25.07;58.44;100966.53;125477;1108;64314;-84
2021/06/24 05:16:58;;;;;;;14.57;9.40;;;;;;;25.10;58.73;100968.99;125586;1106;64246;-82
2021/06/24 05:19:25;;;;;;;16.07;9.73;;;;;;;25.12;58.80;100970.68;125595;1104;62335;-82
2021/06/24 05:21:54;;;;;;;22.10;9.53;;;;;;;25.15;58.52;100959.63;125521;1106;64132;-82
2021/06/24 05:24:21;;;;;;;20.23;9.27;;;;;;;25.16;58.74;100962.20;125545;1106;64128;-83
2021/06/24 05:26:51;;;;;;;20.05;9.85;;;;;;;25.16;58.43;100970.30;125658;1103;64269;-82
2021/06/24 05:29:20;;;;;;;19.43;9.37;;;;;;;25.17;58.80;100973.84;125816;1103;64291;-82
2021/06/24 05:31:51;;;;;;;21.00;9.05;;;;;;;25.17;58.79;100977.42;125735;1103;64264;-82
2021/06/24 05:34:17;;;;;;;20.03;8.63;;;;;;;25.17;58.60;100984.66;125722;1103;64269;-82
2021/06/24 05:36:44;;;;;;;17.73;8.20;;;;;;;25.19;58.81;100979.98;125770;1103;64329;-86
2021/06/24 05:39:14;;;;;;;16.73;8.63;;;;;;;25.22;58.77;100982.41;125887;1103;64338;-83
2021/06/24 05:41:59;;;;;;;17.67;8.53;;;;;;;25.25;59.23;100982.14;125715;1101;64313;-82
2021/06/24 05:44:29;;;;;;;17.30;7.97;;;;;;;25.28;59.00;100984.59;125713;1103;64384;-82
2021/06/24 05:46:56;;;;;;;17.83;8.47;;;;;;;25.29;59.07;100988.14;125743;1103;64301;-82
2021/06/24 05:49:25;;;;;;;18.40;8.90;;;;;;;25.30;58.94;100987.16;125828;1102;64234;-83
2021/06/24 05:51:52;;;;;;;16.87;8.60;;;;;;;25.30;58.93;100996.11;125861;1103;64296;-84
2021/06/24 05:54:21;;;;;;;19.77;8.27;;;;;;;25.30;58.95;100998.81;125858;1103;64302;-83
2021/06/24 05:57:10;;;;;;;16.57;7.83;;;;;;;25.30;58.89;100996.11;125825;1103;64167;-82
2021/06/24 05:59:40;;;;;;;16.23;7.97;;;;;;;25.30;58.87;101000.67;125861;1103;64049;-85
2021/06/24 06:02:07;;;;;;;17.47;7.93;;;;;;;25.32;58.67;100995.97;125854;1102;64163;-83
2021/06/24 06:04:45;;;;;;;17.40;7.88;;;;;;;25.32;58.87;100994.15;125806;1102;64188;-83
2021/06/24 06:07:14;;;;;;;17.87;8.43;;;;;;;25.35;58.90;100993.06;125778;1103;65488;-83
2021/06/24 06:09:44;;;;;;;17.67;8.07;;;;;;;25.37;58.90;101000.05;125817;1103;64172;-83
2021/06/24 06:12:10;;;;;;;16.55;8.30;;;;;;;25.39;59.09;101003.45;125788;1102;64265;-83
2021/06/24 06:14:39;;;;;;;17.50;8.07;;;;;;;25.40;58.85;101002.47;125912;1102;64298;-83
2021/06/24 06:17:16;;;;;;;20.20;7.95;;;;;;;25.39;58.71;100998.05;125842;1103;64355;-83
2021/06/24 06:19:56;;;;;;;13.27;8.33;;;;;;;25.39;58.74;101002.61;125845;1103;64291;-82
2021/06/24 06:22:23;;;;;;;14.27;7.50;;;;;;;25.38;58.62;100995.48;125805;1103;64124;-82
2021/06/24 06:24:50;;;;;;;12.83;7.60;;;;;;;25.37;58.54;100994.64;125878;1103;64192;-82
2021/06/24 06:27:45;;;;;;;22.83;8.10;;;;;;;25.37;58.52;100991.94;125807;1103;64128;-81
2021/06/24 06:30:15;;;;;;;13.13;7.50;;;;;;;25.37;58.90;100991.94;125541;1105;64185;-83
2021/06/24 06:32:47;;;;;;;16.37;7.73;;;;;;;25.40;58.75;100985.41;125540;1105;64358;-83
2021/06/24 06:35:21;;;;;;;14.97;7.83;;;;;;;25.42;58.84;100994.22;125530;1106;64193;-82
2021/06/24 06:38:04;;;;;;;12.80;7.03;;;;;;;25.42;58.84;100991.52;125623;1105;64528;-82
2021/06/24 06:40:52;;;;;;;15.50;8.07;;;;;;;25.41;58.82;100990.68;125540;1104;64174;-83
2021/06/24 06:43:19;;;;;;;15.93;7.80;;;;;;;25.43;58.97;100995.95;125695;1105;63013;-83
2021/06/24 06:45:49;;;;;;;17.87;8.00;;;;;;;25.42;58.72;100995.10;125621;1106;64673;-83
2021/06/24 06:48:24;;;;;;;16.07;8.63;;;;;;;25.42;58.84;101002.33;125623;1106;64175;-82
2021/06/24 06:51:11;;;;;;;19.37;7.20;;;;;;;25.42;58.58;100989.70;125645;1106;64129;-82
2021/06/24 06:53:38;;;;;;;16.10;7.67;;;;;;;25.45;58.88;100990.41;125673;1104;64172;-83
2021/06/24 06:56:45;;;;;;;;;;;;;;;;;;;;;
2021/06/24 06:59:13;;;;;;;18.73;8.97;;;;;;;25.48;58.86;100985.59;125195;1108;64179;-82
2021/06/24 07:02:01;;;;;;;15.77;8.47;;;;;;;25.50;58.67;100978.19;125278;1108;64138;-82
2021/06/24 07:04:50;;;;;;;16.57;8.73;;;;;;;25.51;58.89;100981.77;125267;1109;64185;-83
2021/06/24 07:07:36;;;;;;;;;;;;;;;;;;;;;
2021/06/24 07:10:16;;;;;;;18.60;9.20;;;;;;;25.50;58.79;100980.89;125315;1109;64178;-83
2021/06/24 07:13:02;;;;;;;15.70;8.87;;;;;;;25.52;59.03;100989.73;125336;1106;64147;-81
2021/06/24 07:15:34;;;;;;;13.90;8.00;;;;;;;25.53;58.95;100986.05;125532;1104;63946;-83
2021/06/24 07:18:32;;;;;;;16.07;8.20;;;;;;;25.54;58.97;100990.44;125593;1106;64131;-83
2021/06/24 07:21:08;;;;;;;15.20;8.60;;;;;;;25.56;59.11;100988.48;125596;1105;64186;-82
2021/06/24 07:23:44;;;;;;;17.90;7.57;;;;;;;25.57;59.06;100986.62;125569;1106;64340;-83
2021/06/24 07:26:25;;;;;;;13.73;7.70;;;;;;;25.56;58.99;100987.63;125566;1106;64310;-83
2021/06/24 07:29:13;;;;;;;14.37;8.37;;;;;;;25.54;58.82;100987.73;125554;1106;64275;-83
2021/06/24 07:31:43;;;;;;;13.80;7.53;;;;;;;25.53;58.79;100988.75;125583;1106;64138;-83
2021/06/24 07:34:32;;;;;;;19.00;9.03;;;;;;;25.50;58.83;100985.45;125580;1108;64172;-83
2021/06/24 07:37:10;;;;;;;18.67;9.03;;;;;;;25.48;59.02;100982.02;125754;1103;64269;-83
2021/06/24 07:39:46;;;;;;;18.10;9.15;;;;;;;25.50;59.03;100980.05;125849;1102;62738;-84
2021/06/24 07:42:26;;;;;;;22.73;8.33;;;;;;;25.52;59.24;100989.73;125788;1103;64157;-84
2021/06/24 07:45:14;;;;;;;13.87;8.07;;;;;;;25.54;59.08;100986.89;125870;1103;64215;-84
2021/06/24 07:47:59;;;;;;;16.40;8.70;;;;;;;25.55;59.19;100994.87;125871;1102;64262;-84
2021/06/24 07:50:49;;;;;;;17.97;8.50;;;;;;;25.54;59.14;100990.44;125833;1103;64361;-84
2021/06/24 07:53:27;;;;;;;18.07;8.80;;;;;;;25.53;59.23;100988.75;125687;1103;64477;-85
2021/06/24 07:56:01;;;;;;;24.27;11.37;;;;;;;25.52;59.31;100986.16;125837;1103;64163;-81
2021/06/24 07:59:11;;;;;;;31.00;12.00;;;;;;;25.55;59.40;100988.62;125843;1101;64136;-82
2021/06/24 08:01:42;;;;;;;22.10;11.63;;;;;;;25.62;59.44;100975.42;125744;1103;64125;-83
2021/06/24 08:04:23;;;;;;;25.28;11.40;;;;;;;25.67;59.70;100975.87;125724;1103;64154;-82
2021/06/24 08:07:12;;;;;;;23.73;11.47;;;;;;;25.72;59.76;100987.11;125778;1103;64307;-82
2021/06/24 08:09:50;;;;;;;23.03;11.83;;;;;;;25.74;59.84;100982.44;125870;1103;64140;-81
2021/06/24 08:12:17;;;;;;;21.53;11.77;;;;;;;25.77;59.93;100987.56;125769;1103;64346;-83
2021/06/24 08:14:53;;;;;;;20.70;11.00;;;;;;;25.78;59.87;100991.14;125814;1102;64483;-81
2021/06/24 08:17:49;;;;;;;20.77;10.83;;;;;;;25.75;60.02;100990.41;125809;1103;64092;-82
2021/06/24 08:20:16;;;;;;;22.47;11.03;;;;;;;25.74;59.84;100982.44;125885;1103;64154;-81
2021/06/24 08:22:49;;;;;;;;;;;;;;;25.74;60.00;100985.98;125852;1101;64310;-81
2021/06/24 08:25:36;;;;;;;23.37;9.90;;;;;;;25.78;60.07;100970.35;127097;1103;62245;-82
2021/06/24 08:28:05;;;;;;;24.00;10.80;;;;;;;25.86;60.03;100969.67;127104;1103;61923;-81
2021/06/24 08:30:32;;;;;;;24.13;11.03;;;;;;;25.88;60.45;100976.66;127014;1103;61986;-81
2021/06/24 08:32:58;;;;;;;25.13;10.77;;;;;;;25.91;60.26;100975.53;127062;1103;62898;-81
2021/06/24 08:35:28;;;;;;;24.93;10.53;;;;;;;25.90;60.37;100977.36;127018;1103;62075;-82
2021/06/24 08:37:55;;;;;;;20.63;10.00;;;;;;;25.90;60.15;100973.81;127109;1103;62209;-82
2021/06/24 08:40:21;;;;;;;22.97;10.20;;;;;;;25.89;59.55;100972.97;127031;1103;61442;-82
2021/06/24 08:42:47;;;;;;;19.63;9.90;;;;;;;25.88;60.04;100968.55;126197;1103;64265;-82
2021/06/24 08:45:14;;;;;;;21.60;9.87;;;;;;;25.92;60.16;100964.57;126086;1103;64160;-81
2021/06/24 08:47:42;;;;;;;20.87;8.97;;;;;;;25.99;60.26;100964.00;126004;1102;62325;-81
2021/06/24 08:50:09;;;;;;;20.43;9.57;;;;;;;26.02;60.15;100955.63;126014;1103;64206;-82
2021/06/24 08:52:38;;;;;;;20.90;9.23;;;;;;;26.04;60.21;100962.64;125874;1103;64844;-81
2021/06/24 08:55:05;;;;;;;23.07;10.90;;;;;;;26.06;60.07;100965.20;125983;1102;64169;-81
2021/06/24 08:57:33;;;;;;;16.30;10.10;;;;;;;26.04;60.12;100956.36;125973;1101;62500;-84
2021/06/24 09:00:07;;;;;;;23.33;10.30;;;;;;;26.03;59.75;100951.97;125803;1103;64297;-81
2021/06/24 09:02:47;;;;;;;20.57;10.07;;;;;;;26.02;59.74;100951.06;125745;1102;64124;-84
2021/06/24 09:05:24;;;;;;;16.50;10.10;;;;;;;26.03;59.78;100946.56;125798;1103;61922;-83
2021/06/24 09:08:09;;;;;;;20.03;9.80;;;;;;;26.00;59.53;100946.78;125741;1106;64360;-83
2021/06/24 09:10:39;;;;;;;20.10;9.47;;;;;;;25.96;59.73;100945.35;125839;1101;64023;-84
2021/06/24 09:13:19;;;;;;;17.23;8.93;;;;;;;25.92;59.73;100942.93;125744;1103;64520;-84
2021/06/24 09:15:58;;;;;;;18.00;9.10;;;;;;;25.90;59.69;100947.61;125790;1103;64223;-84
2021/06/24 09:18:28;;;;;;;19.77;9.10;;;;;;;25.87;59.50;100950.59;125816;1103;64096;-81
2021/06/24 09:21:21;;;;;;;;;;;;;;;;;;;;;
2021/06/24 09:24:10;;;;;;;22.83;9.90;;;;;;;25.86;59.67;100946.17;125741;1103;64160;-83
2021/06/24 09:26:45;;;;;;;15.07;9.50;;;;;;;25.85;59.85;100949.02;125818;1101;64160;-84
2021/06/24 09:29:37;;;;;;;22.73;10.03;;;;;;;25.83;59.69;100942.91;125919;1102;64351;-82
2021/06/24 09:33:00;;;;;;;;;;;;;;;;;;;;;
2021/06/24 09:35:39;;;;;;;20.20;9.23;;;;;;;25.81;59.30;100940.32;125727;1103;64180;-82
2021/06/24 09:38:08;;;;;;;17.53;8.93;;;;;;;25.80;59.38;100945.88;125783;1100;64253;-82
2021/06/24 09:40:53;;;;;;;16.37;8.30;;;;;;;25.81;59.36;100944.89;126445;1100;64153;-82
2021/06/24 09:43:48;;;;;;;13.87;8.80;;;;;;;25.81;59.30;100943.02;126089;1100;64185;-82
2021/06/24 09:46:19;;;;;;;17.73;9.03;;;;;;;25.82;59.13;100952.86;126133;1100;64188;-82
2021/06/24 09:49:01;;;;;;;14.27;8.20;;;;;;;25.82;59.33;100946.61;126540;1100;63950;-83
2021/06/24 09:51:40;;;;;;;15.60;8.67;;;;;;;25.80;59.18;100941.34;126237;1100;64049;-81
2021/06/24 09:54:17;;;;;;;13.80;8.30;;;;;;;25.78;59.22;100939.77;126101;1100;64304;-82
2021/06/24 09:56:50;;;;;;;13.63;8.63;;;;;;;25.75;59.05;100944.44;126456;1098;64174;-81
2021/06/24 09:59:18;;;;;;;13.40;8.20;;;;;;;25.73;59.25;100945.56;126322;1100;64314;-82
2021/06/24 10:01:54;;;;;;;17.37;8.73;;;;;;;25.73;59.09;100942.86;126183;1100;64179;-82
2021/06/24 10:04:34;;;;;;;12.60;8.13;;;;;;;25.71;58.98;100934.89;126157;1100;64147;-82
2021/06/24 10:07:08;;;;;;;22.20;9.17;;;;;;;25.68;59.00;100943.28;126193;1100;63638;-83
2021/06/24 10:09:41;;;;;;;13.30;8.10;;;;;;;25.67;58.89;100940.72;126094;1100;64185;-83
2021/06/24 10:12:26;;;;;;;14.07;7.67;;;;;;;25.66;59.04;100930.89;126179;1100;64756;-83
2021/06/24 10:14:57;;;;;;;14.47;8.30;;;;;;;25.65;59.12;100934.58;126115;1100;64049;-83
2021/06/24 10:17:39;;;;;;;16.63;7.90;;;;;;;25.64;58.97;100935.57;126096;1100;64154;-83
2021/06/24 10:20:13;;;;;;;15.83;8.33;;;;;;;25.64;58.91;100933.73;126140;1100;64167;-84
2021/06/24 10:22:46;;;;;;;18.50;8.43;;;;;;;25.65;58.91;100930.02;126114;1100;64310;-82
2021/06/24 10:25:36;;;;;;;18.43;9.07;;;;;;;25.67;58.77;100933.45;126003;1100;64156;-82
2021/06/24 10:28:03;;;;;;;18.15;7.70;;;;;;;25.67;58.80;100924.50;125952;1100;63110;-83
2021/06/24 10:30:42;;;;;;;15.50;7.67;;;;;;;25.71;58.33;100925.94;126047;1100;64182;-83
2021/06/24 10:33:16;;;;;;;17.83;7.73;;;;;;;25.75;58.18;100927.38;126096;1100;63268;-83
2021/06/24 10:35:46;;;;;;;16.10;8.27;;;;;;;25.77;57.96;100919.96;127130;1098;61913;-82
2021/06/24 10:38:13;;;;;;;14.67;7.97;;;;;;;25.76;57.73;100918.27;126441;1100;63014;-82
2021/06/24 10:40:44;;;;;;;12.47;7.00;;;;;;;25.79;57.54;100923.39;126095;1100;64307;-82
2021/06/24 10:43:15;;;;;;;16.20;7.70;;;;;;;25.87;57.26;100922.72;126115;1100;64207;-82
2021/06/24 10:45:46;;;;;;;16.07;7.53;;;;;;;25.89;56.84;100913.47;126138;1100;64093;-82
2021/06/24 10:48:29;;;;;;;12.00;7.77;;;;;;;25.89;56.72;100923.41;126161;1100;64275;-83
2021/06/24 10:51:06;;;;;;;19.37;7.83;;;;;;;25.86;56.70;100924.55;126074;1100;64071;-82
2021/06/24 10:53:36;;;;;;;13.70;7.60;;;;;;;25.82;56.81;100914.16;126282;1100;64099;-82
2021/06/24 10:56:27;;;;;;;16.37;8.27;;;;;;;25.80;56.52;100917.00;126131;1099;62970;-83
2021/06/24 10:58:58;;;;;;;12.77;7.83;;;;;;;25.76;56.71;100918.27;126223;1098;64095;-84
2021/06/24 11:01:50;;;;;;;;;;;;;;;25.70;56.63;100910.70;126276;1100;64662;-83
2021/06/24 11:04:31;;;;;;;13.00;7.73;;;;;;;25.66;56.95;100911.97;126182;1100;64179;-83
2021/06/24 11:07:18;;;;;;;14.70;8.10;;;;;;;25.64;56.88;100919.34;126083;1100;63971;-83
2021/06/24 11:10:13;;;;;;;16.10;8.20;;;;;;;25.66;57.12;100917.38;126238;1100;63299;-83
2021/06/24 11:12:51;;;;;;;12.75;7.60;;;;;;;25.68;57.27;100918.08;126158;1100;64151;-84
2021/06/24 11:15:46;;;;;;;14.73;8.03;;;;;;;25.70;57.26;100913.41;126569;1100;62420;-82
2021/06/24 11:18:49;;;;;;;14.97;8.07;;;;;;;25.72;57.30;100916.81;126126;1100;64035;-81
2021/06/24 11:21:23;;;;;;;15.17;8.63;;;;;;;25.75;57.32;100913.85;127140;1100;62687;-82
2021/06/24 11:24:06;;;;;;;;;;;;;;;;;;;;;
2021/06/24 11:27:33;;;;;;;;;;;;;;;;;;;;;
2021/06/24 11:30:52;;;;;;;15.33;8.13;;;;;;;25.80;57.23;100900.78;125703;1105;64170;-83
2021/06/24 11:38:09;;;;;;;23.50;10.40;;;;;;;25.81;57.38;100891.65;125222;1109;64456;-83
2021/06/24 11:41:51;;;;;;;;;;;;;;;;;;;;;
2021/06/24 11:45:29;;;;;;;17.00;9.10;;;;;;;26.05;57.38;100891.30;124807;1116;64349;-84
2021/06/24 11:48:51;;;;;;;18.20;8.50;;;;;;;26.04;57.44;100881.50;124474;1121;64222;-84
2021/06/24 12:03:17;;;;;;;;;;;;;;;;;;;;;
2021/06/24 12:06:48;;;;;;;;;;;;;;;;;;;;;
2021/06/24 12:10:22;;;;;;;18.60;9.00;;;;;;;26.38;57.10;100878.36;123895;1122;64118;-84
2021/06/24 12:13:51;;;;;;;;;;;;;;;;;;;;;
2021/06/24 12:17:04;;;;;;;17.80;9.20;;;;;;;26.46;56.96;100880.36;123429;1131;64304;-82
2021/06/24 12:20:46;;;;;;;16.50;8.45;;;;;;;26.50;56.86;100886.35;123437;1127;64221;-81
2021/06/24 12:24:03;;;;;;;;;;;;;;;;;;;;;
2021/06/24 12:27:15;;;;;;;16.35;8.55;;;;;;;26.51;56.81;100882.63;124068;1125;64316;-84
2021/06/24 12:30:44;;;;;;;;;;;;;;;;;;;;;
2021/06/24 12:34:17;;;;;;;;;;;;;;;;;;;;;
2021/06/24 12:38:02;;;;;;;17.20;8.40;;;;;;;26.57;56.37;100874.78;123944;1124;64517;-84
2021/06/24 12:41:39;;;;;;;16.40;8.00;;;;;;;26.55;56.49;100870.50;124042;1124;63972;-84
2021/06/24 12:45:26;;;;;;;16.70;8.40;;;;;;;26.51;56.42;100860.97;123668;1127;64231;-84
2021/06/24 12:48:54;;;;;;;14.60;8.40;;;;;;;26.45;56.09;100851.58;123318;1131;64242;-84
2021/06/24 12:52:16;;;;;;;;;;;;;;;;;;;;;
2021/06/24 12:55:24;;;;;;;;;;;;;;;;;;;;;
2021/06/24 12:58:47;;;;;;;11.50;7.50;;;;;;;26.23;56.49;100863.57;123875;1125;63604;-83
2021/06/24 13:01:56;;;;;;;;;;;;;;;;;;;;;
2021/06/24 13:08:53;;;;;;;;;;;;;;;;;;;;;
2021/06/24 13:12:07;;;;;;;14.53;7.70;;;;;;;26.28;56.83;100858.55;124596;1119;64189;-83
2021/06/24 13:15:07;;;;;;;14.20;8.50;;;;;;;26.33;56.78;100852.73;124499;1121;64298;-81
2021/06/24 13:18:27;;;;;;;;;;;;;;;;;;;;;
2021/06/24 13:21:40;;;;;;;13.30;7.30;;;;;;;26.36;56.64;100841.61;124638;1119;64238;-82